createdAt,value
2023-03-24T00:01:06.247Z,1.20
2023-03-24T00:03:33.002Z,1.17
2023-03-24T00:06:02.205Z,1.10
2023-03-24T00:08:36.553Z,2.23
2023-03-24T00:11:08.146Z,1.60
2023-03-24T00:13:38.891Z,2.00
2023-03-24T00:16:10.609Z,1.53
2023-03-24T00:18:39.583Z,1.10
2023-03-24T00:21:07.733Z,1.47
2023-03-24T00:23:34.790Z,1.23
2023-03-24T00:26:02.925Z,1.80
2023-03-24T00:28:31.730Z,1.47
2023-03-24T00:30:58.342Z,1.57
2023-03-24T00:33:25.457Z,1.90
2023-03-24T00:35:52.428Z,1.67
2023-03-24T00:38:19.586Z,2.00
2023-03-24T00:40:48.744Z,1.50
2023-03-24T00:43:15.406Z,1.30
2023-03-24T00:45:48.206Z,1.20
2023-03-24T00:48:16.055Z,1.90
2023-03-24T00:50:49.375Z,2.50
2023-03-24T00:53:16.388Z,2.90
2023-03-24T00:55:46.118Z,1.53
2023-03-24T00:58:18.056Z,1.40
2023-03-24T01:00:45.248Z,2.17
2023-03-24T01:03:12.234Z,1.33
2023-03-24T01:05:39.576Z,4.53
2023-03-24T01:08:06.328Z,1.43
2023-03-24T01:10:34.168Z,1.90
2023-03-24T01:13:01.277Z,1.80
2023-03-24T01:15:33.692Z,2.40
2023-03-24T01:18:03.458Z,2.50
2023-03-24T01:20:33.777Z,1.80
2023-03-24T01:23:01.678Z,1.40
2023-03-24T01:25:29.265Z,1.63
2023-03-24T01:27:56.025Z,1.70
2023-03-24T01:30:24.871Z,2.43
2023-03-24T01:32:52.314Z,1.10
2023-03-24T01:35:20.307Z,2.27
2023-03-24T01:37:46.946Z,2.67
2023-03-24T01:40:18.301Z,1.90
2023-03-24T01:42:44.917Z,2.87
2023-03-24T01:45:30.466Z,1.63
2023-03-24T01:47:57.273Z,2.00
2023-03-24T01:50:24.283Z,1.63
2023-03-24T01:52:51.101Z,1.70
2023-03-24T01:55:19.956Z,2.33
2023-03-24T01:57:49.619Z,1.70
2023-03-24T02:00:18.248Z,2.30
2023-03-24T02:03:08.487Z,1.70
2023-03-24T02:05:45.388Z,2.07
2023-03-24T02:08:12.504Z,1.77
2023-03-24T02:10:40.033Z,2.60
2023-03-24T02:13:07.550Z,2.60
2023-03-24T02:15:37.362Z,2.10
2023-03-24T02:18:08.209Z,1.43
2023-03-24T02:21:10.947Z,1.63
2023-03-24T02:23:43.389Z,2.27
2023-03-24T02:26:10.260Z,2.40
2023-03-24T02:28:55.666Z,2.80
2023-03-24T02:31:33.333Z,2.40
2023-03-24T02:34:15.793Z,2.37
2023-03-24T02:36:49.041Z,2.80
2023-03-24T02:39:24.656Z,1.90
2023-03-24T02:41:54.372Z,2.77
2023-03-24T02:44:26.936Z,1.70
2023-03-24T02:47:01.819Z,2.40
2023-03-24T02:49:30.530Z,2.83
2023-03-24T02:52:04.073Z,3.30
2023-03-24T02:54:42.342Z,2.27
2023-03-24T02:57:17.863Z,2.33
2023-03-24T03:00:14.835Z,2.43
2023-03-24T03:03:29.329Z,2.27
2023-03-24T03:06:02.451Z,3.07
2023-03-24T03:08:32.801Z,1.97
2023-03-24T03:11:01.829Z,3.50
2023-03-24T03:13:31.443Z,2.40
2023-03-24T03:16:00.046Z,2.00
2023-03-24T03:18:31.024Z,2.40
2023-03-24T03:21:04.695Z,2.10
2023-03-24T03:23:47.859Z,2.10
2023-03-24T03:26:16.534Z,3.20
2023-03-24T03:28:49.923Z,2.77
2023-03-24T03:31:23.810Z,2.83
2023-03-24T03:33:53.757Z,3.03
2023-03-24T03:36:29.062Z,2.90
2023-03-24T03:39:03.795Z,3.00
2023-03-24T03:41:31.587Z,3.10
2023-03-24T03:43:58.379Z,3.20
2023-03-24T03:46:25.216Z,2.83
2023-03-24T03:48:52.004Z,3.13
2023-03-24T03:51:19.445Z,4.00
2023-03-24T03:53:55.585Z,3.60
2023-03-24T03:56:24.181Z,2.50
2023-03-24T03:59:24.413Z,5.00
2023-03-24T04:01:51.368Z,2.27
2023-03-24T04:04:37.977Z,3.57
2023-03-24T04:07:35.242Z,5.03
2023-03-24T04:10:19.404Z,3.53
2023-03-24T04:12:59.118Z,4.60
2023-03-24T04:15:49.080Z,3.40
2023-03-24T04:18:38.892Z,2.90
2023-03-24T04:21:16.512Z,4.60
2023-03-24T04:23:54.341Z,4.73
2023-03-24T04:26:27.918Z,4.57
2023-03-24T04:29:04.737Z,5.10
2023-03-24T04:31:34.341Z,3.87
2023-03-24T04:34:12.405Z,4.13
2023-03-24T04:36:50.497Z,4.37
2023-03-24T04:39:31.133Z,3.17
2023-03-24T04:42:02.645Z,2.90
2023-03-24T04:44:30.394Z,2.87
2023-03-24T04:47:17.281Z,2.70
2023-03-24T04:50:03.705Z,2.40
2023-03-24T04:52:31.326Z,3.10
2023-03-24T04:54:59.734Z,2.00
2023-03-24T04:57:26.557Z,2.80
2023-03-24T05:00:00.138Z,2.77
2023-03-24T05:02:27.684Z,1.80
2023-03-24T05:04:58.791Z,2.50
2023-03-24T05:07:34.248Z,2.20
2023-03-24T05:10:04.702Z,1.30
2023-03-24T05:12:36.545Z,1.63
2023-03-24T05:15:21.543Z,1.13
2023-03-24T05:17:53.780Z,0.87
2023-03-24T05:20:24.040Z,1.20
2023-03-24T05:22:52.114Z,1.33
2023-03-24T05:25:19.102Z,1.67
2023-03-24T05:27:46.162Z,1.87
2023-03-24T05:30:20.712Z,2.23
2023-03-24T05:32:50.242Z,1.00
2023-03-24T05:35:17.113Z,2.00
2023-03-24T05:37:43.777Z,1.70
2023-03-24T05:40:11.020Z,1.70
2023-03-24T05:42:50.627Z,1.37
2023-03-24T05:45:18.366Z,3.27
2023-03-24T05:47:46.523Z,1.37
2023-03-24T05:50:13.286Z,1.70
2023-03-24T05:52:41.299Z,2.17
2023-03-24T05:55:31.089Z,2.10
2023-03-24T05:58:05.935Z,2.03
2023-03-24T06:00:40.800Z,2.43
2023-03-24T06:03:14.369Z,3.03
2023-03-24T06:05:46.121Z,4.93
2023-03-24T06:08:13.224Z,2.90
2023-03-24T06:10:40.742Z,3.37
2023-03-24T06:13:09.267Z,3.03
2023-03-24T06:15:39.588Z,3.07
2023-03-24T06:18:24.165Z,3.00
2023-03-24T06:20:50.994Z,4.07
2023-03-24T06:23:27.847Z,4.40
2023-03-24T06:26:09.138Z,3.27
2023-03-24T06:28:39.657Z,3.47
2023-03-24T06:31:18.633Z,6.13
2023-03-24T06:33:45.744Z,2.73
2023-03-24T06:36:13.107Z,3.27
2023-03-24T06:38:42.348Z,5.00
2023-03-24T06:41:09.453Z,4.20
2023-03-24T06:43:36.648Z,5.30
2023-03-24T06:46:03.657Z,5.67
2023-03-24T06:48:31.419Z,4.80
2023-03-24T06:51:02.154Z,5.60
2023-03-24T06:53:28.792Z,5.30
2023-03-24T06:55:55.566Z,5.60
2023-03-24T06:58:24.317Z,6.00
2023-03-24T07:00:51.154Z,5.17
2023-03-24T07:03:31.813Z,3.57
2023-03-24T07:06:24.253Z,4.37
2023-03-24T07:08:54.309Z,4.33
2023-03-24T07:11:24.441Z,3.70
2023-03-24T07:13:57.364Z,1.93
2023-03-24T07:16:24.147Z,3.23
2023-03-24T07:19:01.356Z,2.23
2023-03-24T07:21:29.912Z,2.20
2023-03-24T07:23:56.525Z,3.13
2023-03-24T07:26:30.946Z,2.47
2023-03-24T07:29:03.066Z,2.40
2023-03-24T07:44:27.376Z,3.20
2023-03-24T07:46:54.158Z,2.70
2023-03-24T07:49:21.351Z,3.37
2023-03-24T07:51:59.151Z,3.60
2023-03-24T07:54:34.214Z,2.90
2023-03-24T07:57:01.407Z,4.60
2023-03-24T07:59:28.577Z,3.93
2023-03-24T08:02:05.494Z,4.47
2023-03-24T08:04:46.815Z,4.10
2023-03-24T08:07:27.142Z,3.77
2023-03-24T08:09:53.702Z,3.77
2023-03-24T08:12:20.831Z,3.40
2023-03-24T08:14:47.473Z,3.57
2023-03-24T08:17:13.966Z,4.37
2023-03-24T08:19:56.221Z,4.37
2023-03-24T08:22:26.877Z,4.80
2023-03-24T08:24:53.416Z,3.90
2023-03-24T08:27:19.969Z,5.00
2023-03-24T08:29:46.844Z,4.53
2023-03-24T08:32:13.830Z,4.47
2023-03-24T08:34:40.503Z,3.80
2023-03-24T08:37:08.196Z,5.57
2023-03-24T08:39:35.806Z,3.60
2023-03-24T08:42:02.434Z,3.97
2023-03-24T08:44:31.125Z,5.23
2023-03-24T08:47:00.714Z,4.30
2023-03-24T08:49:27.217Z,4.63
2023-03-24T08:51:53.645Z,2.97
2023-03-24T08:54:23.402Z,3.37
2023-03-24T08:56:50.127Z,2.23
2023-03-24T08:59:16.723Z,4.10
2023-03-24T09:01:43.747Z,3.43
2023-03-24T09:04:10.354Z,3.27
2023-03-24T09:06:37.327Z,3.93
2023-03-24T09:09:03.873Z,3.70
2023-03-24T09:11:30.518Z,3.30
2023-03-24T09:13:58.291Z,2.57
2023-03-24T09:16:24.812Z,2.23
2023-03-24T09:18:51.525Z,3.33
2023-03-24T09:21:18.008Z,2.10
2023-03-24T09:23:44.945Z,4.43
2023-03-24T09:26:11.722Z,3.10
2023-03-24T09:28:38.218Z,2.83
2023-03-24T09:31:05.895Z,2.03
2023-03-24T09:33:35.055Z,2.93
2023-03-24T09:36:02.210Z,3.17
2023-03-24T09:38:29.143Z,2.10
2023-03-24T09:41:02.621Z,2.67
2023-03-24T09:43:48.266Z,3.30
2023-03-24T09:46:19.216Z,2.80
2023-03-24T09:48:45.711Z,2.63
2023-03-24T09:51:15.654Z,2.93
2023-03-24T09:54:06.056Z,4.00
2023-03-24T09:56:33.479Z,4.00
2023-03-24T09:59:19.179Z,2.90
2023-03-24T10:01:45.859Z,2.17
2023-03-24T10:04:18.436Z,3.23
2023-03-24T10:06:45.915Z,2.67
2023-03-24T10:09:22.695Z,3.83
2023-03-24T10:12:01.410Z,3.60
2023-03-24T10:14:46.703Z,2.13
2023-03-24T10:17:13.171Z,3.10
2023-03-24T10:19:59.599Z,2.33
2023-03-24T10:22:42.067Z,2.07
2023-03-24T10:25:15.005Z,3.13
2023-03-24T10:28:01.755Z,2.13
2023-03-24T10:30:29.992Z,2.60
2023-03-24T10:32:56.808Z,3.07
2023-03-24T10:35:34.996Z,2.53
2023-03-24T10:38:04.118Z,2.80
2023-03-24T10:40:33.484Z,2.33
2023-03-24T10:43:06.420Z,2.27
2023-03-24T10:45:34.729Z,2.27
2023-03-24T10:48:02.229Z,1.83
2023-03-24T10:50:30.039Z,2.33
2023-03-24T10:52:56.950Z,2.60
2023-03-24T10:55:28.581Z,1.50
2023-03-24T10:57:59.193Z,3.27
2023-03-24T11:00:32.034Z,1.83
2023-03-24T11:03:01.725Z,2.43
2023-03-24T11:05:38.353Z,2.30
2023-03-24T11:08:20.317Z,1.93
2023-03-24T11:10:47.027Z,1.90
2023-03-24T11:13:26.470Z,2.10
2023-03-24T11:16:14.174Z,3.10
2023-03-24T11:18:56.614Z,2.27
2023-03-24T11:21:23.533Z,1.93
2023-03-24T11:23:51.165Z,2.10
2023-03-24T11:26:22.840Z,2.70
2023-03-24T11:28:53.732Z,1.80
2023-03-24T11:31:24.766Z,4.23
2023-03-24T11:33:59.541Z,3.70
2023-03-24T11:36:30.372Z,3.23
2023-03-24T11:38:58.888Z,2.73
2023-03-24T11:41:25.711Z,2.00
2023-03-24T11:44:07.903Z,1.67
2023-03-24T11:46:35.462Z,2.13
2023-03-24T11:49:02.602Z,2.37
2023-03-24T11:51:32.803Z,2.33
2023-03-24T11:54:00.610Z,1.60
2023-03-24T11:56:30.397Z,2.50
2023-03-24T11:59:02.752Z,2.57
2023-03-24T12:01:33.033Z,1.43
2023-03-24T12:04:18.458Z,2.33
2023-03-24T12:07:07.173Z,2.20
2023-03-24T12:09:34.214Z,2.10
2023-03-24T12:12:19.811Z,1.97
2023-03-24T12:14:46.448Z,1.77
2023-03-24T12:17:32.145Z,1.70
2023-03-24T12:20:38.007Z,1.37
2023-03-24T12:23:08.929Z,2.77
2023-03-24T12:25:42.168Z,2.37
2023-03-24T12:28:08.718Z,1.97
2023-03-24T12:30:38.275Z,1.60
2023-03-24T12:33:11.384Z,1.90
2023-03-24T12:35:50.678Z,2.10
2023-03-24T12:38:26.086Z,1.73
2023-03-24T12:40:56.962Z,1.87
2023-03-24T12:43:42.312Z,1.63
2023-03-24T12:46:34.135Z,2.13
2023-03-24T12:49:26.476Z,1.83
2023-03-24T12:52:14.982Z,2.00
2023-03-24T12:55:05.250Z,1.63
2023-03-24T12:57:40.986Z,2.10
2023-03-24T13:00:13.090Z,1.70
2023-03-24T13:02:43.317Z,1.33
2023-03-24T13:05:16.862Z,1.97
2023-03-24T13:07:47.402Z,2.30
2023-03-24T13:10:16.329Z,2.37
2023-03-24T13:12:51.304Z,1.40
2023-03-24T13:15:18.038Z,2.07
2023-03-24T13:17:57.399Z,1.83
2023-03-24T13:20:29.401Z,1.47
2023-03-24T13:22:56.911Z,2.00
2023-03-24T13:25:50.072Z,1.23
2023-03-24T13:28:21.388Z,1.63
2023-03-24T13:30:47.923Z,1.50
2023-03-24T13:33:16.155Z,1.10
2023-03-24T13:35:56.669Z,0.90
2023-03-24T13:38:33.206Z,1.60
2023-03-24T13:41:03.017Z,1.63
2023-03-24T13:43:30.967Z,1.43
2023-03-24T13:46:05.221Z,1.20
2023-03-24T13:48:33.629Z,0.87
2023-03-24T13:51:18.579Z,1.30
2023-03-24T13:53:50.328Z,1.20
2023-03-24T13:56:25.472Z,1.10
2023-03-24T13:58:58.050Z,0.90
2023-03-24T14:01:33.295Z,1.57
2023-03-24T14:04:18.257Z,1.00
2023-03-24T14:06:55.119Z,1.23
2023-03-24T14:09:33.001Z,1.10
2023-03-24T14:12:02.481Z,1.60
2023-03-24T14:14:29.595Z,1.27
2023-03-24T14:17:03.060Z,1.27
2023-03-24T14:19:31.164Z,2.13
2023-03-24T14:22:04.109Z,1.47
2023-03-24T14:24:33.257Z,1.17
2023-03-24T14:27:00.447Z,1.13
2023-03-24T14:29:41.692Z,1.10
2023-03-24T14:32:20.223Z,1.40
2023-03-24T14:34:51.787Z,1.03
2023-03-24T14:37:18.343Z,2.40
2023-03-24T14:39:48.543Z,1.97
2023-03-24T14:42:50.507Z,1.40
2023-03-24T14:45:36.922Z,1.93
2023-03-24T14:48:05.619Z,1.60
2023-03-24T14:50:32.433Z,1.83
2023-03-24T14:53:00.277Z,1.60
2023-03-24T14:55:27.159Z,1.33
2023-03-24T14:57:56.364Z,1.30
2023-03-24T15:00:25.987Z,4.23
2023-03-24T15:02:55.627Z,1.47
2023-03-24T15:05:25.349Z,1.37
2023-03-24T15:08:01.095Z,1.70
2023-03-24T15:10:31.499Z,2.03
2023-03-24T15:12:58.271Z,1.60
2023-03-24T15:15:25.165Z,1.50
2023-03-24T15:17:52.237Z,1.43
2023-03-24T15:20:23.943Z,2.30
2023-03-24T15:22:51.862Z,2.40
2023-03-24T15:25:18.795Z,2.40
2023-03-24T15:27:49.849Z,1.50
2023-03-24T15:30:16.730Z,2.03
2023-03-24T15:32:46.187Z,1.30
2023-03-24T15:35:18.275Z,1.67
2023-03-24T15:37:48.483Z,1.63
2023-03-24T15:40:31.035Z,1.93
2023-03-24T15:42:59.470Z,1.80
2023-03-24T15:45:27.616Z,1.40
2023-03-24T15:47:54.840Z,1.50
2023-03-24T15:50:38.764Z,1.03
2023-03-24T15:53:07.845Z,1.50
2023-03-24T15:55:36.037Z,1.43
2023-03-24T15:58:22.310Z,2.50
2023-03-24T16:00:50.919Z,1.20
2023-03-24T16:03:18.029Z,1.03
2023-03-24T16:05:49.047Z,1.30
2023-03-24T16:08:36.244Z,1.23
2023-03-24T16:11:07.710Z,1.37
2023-03-24T16:13:34.749Z,1.90
2023-03-24T16:16:07.705Z,2.20
2023-03-24T16:18:36.422Z,1.67
2023-03-24T16:21:09.233Z,6.93
2023-03-24T16:23:36.327Z,3.03
2023-03-24T16:26:03.475Z,5.00
2023-03-24T16:28:32.700Z,1.93
2023-03-24T16:31:02.237Z,0.90
2023-03-24T16:33:30.536Z,1.03
2023-03-24T16:35:57.301Z,1.03
2023-03-24T16:38:27.431Z,1.17
2023-03-24T16:40:55.598Z,1.10
2023-03-24T16:43:24.892Z,0.70
2023-03-24T16:45:51.666Z,1.23
2023-03-24T16:48:18.773Z,1.13
2023-03-24T16:50:47.047Z,0.90
2023-03-24T16:53:14.249Z,1.10
2023-03-24T16:55:41.824Z,0.80
2023-03-24T16:58:08.394Z,1.73
2023-03-24T17:00:37.060Z,1.40
2023-03-24T17:03:04.643Z,1.33
2023-03-24T17:05:35.889Z,1.33
2023-03-24T17:08:02.624Z,2.70
2023-03-24T17:10:29.473Z,2.80
2023-03-24T17:12:56.614Z,1.33
2023-03-24T17:15:27.624Z,3.03
2023-03-24T17:17:54.965Z,2.27
2023-03-24T17:20:22.165Z,1.33
2023-03-24T17:22:50.953Z,2.00
2023-03-24T17:25:19.035Z,1.70
2023-03-24T17:27:45.684Z,1.63
2023-03-24T17:30:17.222Z,1.70
2023-03-24T17:32:43.876Z,1.23
2023-03-24T17:35:11.531Z,2.73
2023-03-24T17:37:38.144Z,1.00
2023-03-24T17:40:12.082Z,1.50
2023-03-24T17:42:40.123Z,1.77
2023-03-24T17:45:07.787Z,1.20
2023-03-24T17:47:34.899Z,1.30
2023-03-24T17:50:02.145Z,1.00
2023-03-24T17:52:28.654Z,1.23
2023-03-24T17:54:55.521Z,1.10
2023-03-24T17:57:22.248Z,1.20
2023-03-24T17:59:48.771Z,1.10
2023-03-24T18:02:15.822Z,1.33
2023-03-24T18:04:42.417Z,1.17
2023-03-24T18:07:09.588Z,1.20
2023-03-24T18:09:37.804Z,1.50
2023-03-24T18:12:04.709Z,2.03
2023-03-24T18:14:31.717Z,1.53
2023-03-24T18:16:58.630Z,1.20
2023-03-24T18:19:25.290Z,1.07
2023-03-24T18:21:51.996Z,1.60
2023-03-24T18:24:18.998Z,1.27
2023-03-24T18:26:45.906Z,1.10
2023-03-24T18:29:12.851Z,1.10
2023-03-24T18:31:40.053Z,1.10
2023-03-24T18:34:06.731Z,1.60
2023-03-24T18:36:33.895Z,1.90
2023-03-24T18:39:03.600Z,1.40
2023-03-24T18:41:30.713Z,1.43
2023-03-24T18:43:58.529Z,0.97
2023-03-24T18:46:26.473Z,1.20
2023-03-24T18:48:53.302Z,1.40
2023-03-24T18:51:21.104Z,1.20
2023-03-24T18:53:48.156Z,1.10
2023-03-24T18:56:14.943Z,1.33
2023-03-24T18:58:43.524Z,1.00
2023-03-24T19:01:11.183Z,1.50
2023-03-24T19:03:39.212Z,1.33
2023-03-24T19:06:07.307Z,1.70
2023-03-24T19:08:35.846Z,1.70
2023-03-24T19:11:02.498Z,1.30
2023-03-24T19:13:29.510Z,3.47
2023-03-24T19:15:56.135Z,1.30
2023-03-24T19:18:23.826Z,1.20
2023-03-24T19:20:52.751Z,0.90
2023-03-24T19:23:20.624Z,1.10
2023-03-24T19:25:47.345Z,1.30
2023-03-24T19:28:16.155Z,1.57
2023-03-24T19:30:42.784Z,1.30
2023-03-24T19:33:11.311Z,1.40
2023-03-24T19:35:38.843Z,1.40
2023-03-24T19:38:05.485Z,1.67
2023-03-24T19:40:32.058Z,1.97
2023-03-24T19:42:58.655Z,2.27
2023-03-24T19:45:26.180Z,2.27
2023-03-24T19:47:53.034Z,2.10
2023-03-24T19:50:19.780Z,3.10
2023-03-24T19:52:47.623Z,2.80
2023-03-24T19:55:14.338Z,2.27
2023-03-24T19:57:41.211Z,2.13
2023-03-24T20:00:10.318Z,2.07
2023-03-24T20:02:38.700Z,3.57
2023-03-24T20:05:06.773Z,3.40
2023-03-24T20:07:33.852Z,2.20
2023-03-24T20:10:00.700Z,1.47
2023-03-24T20:12:27.797Z,2.00
2023-03-24T20:14:54.699Z,1.50
2023-03-24T20:17:22.235Z,1.43
2023-03-24T20:19:49.684Z,0.73
2023-03-24T20:22:16.398Z,1.00
2023-03-24T20:24:44.288Z,1.13
2023-03-24T20:27:11.046Z,0.90
2023-03-24T20:29:40.338Z,0.87
2023-03-24T20:32:09.977Z,1.17
2023-03-24T20:34:38.072Z,0.83
2023-03-24T20:37:05.388Z,0.83
2023-03-24T20:39:32.295Z,1.00
2023-03-24T20:42:01.398Z,1.10
2023-03-24T20:44:28.373Z,1.27
2023-03-24T20:46:57.353Z,0.80
2023-03-24T20:49:25.709Z,0.90
2023-03-24T20:51:52.836Z,0.70
2023-03-24T20:54:19.546Z,1.20
2023-03-24T20:56:46.820Z,1.53
2023-03-24T20:59:13.969Z,0.93
2023-03-24T21:01:41.954Z,1.00
2023-03-24T21:04:10.151Z,0.60
2023-03-24T21:06:38.244Z,0.90
2023-03-24T21:09:04.956Z,0.83
2023-03-24T21:11:32.078Z,0.70
2023-03-24T21:13:59.184Z,1.10
2023-03-24T21:16:26.936Z,1.40
2023-03-24T21:18:54.301Z,0.80
2023-03-24T21:21:21.315Z,1.03
2023-03-24T21:23:48.166Z,0.90
2023-03-24T21:26:16.956Z,0.50
2023-03-24T21:28:43.711Z,0.80
2023-03-24T21:31:11.791Z,0.90
2023-03-24T21:33:40.981Z,0.80
2023-03-24T21:36:08.692Z,1.63
2023-03-24T21:38:36.080Z,1.33
2023-03-24T21:41:02.689Z,0.90
2023-03-24T21:43:30.274Z,0.80
2023-03-24T21:45:58.565Z,0.97
2023-03-24T21:48:26.605Z,1.83
2023-03-24T21:50:54.202Z,1.00
2023-03-24T21:53:24.204Z,0.80
2023-03-24T21:55:55.635Z,0.93
2023-03-24T21:58:23.210Z,1.10
2023-03-24T22:00:50.148Z,0.90
2023-03-24T22:03:16.952Z,0.67
2023-03-24T22:05:44.231Z,1.10
2023-03-24T22:08:12.346Z,1.30
2023-03-24T22:10:43.388Z,0.90
2023-03-24T22:13:10.657Z,1.27
2023-03-24T22:15:37.903Z,0.83
2023-03-24T22:18:04.507Z,1.13
2023-03-24T22:20:32.905Z,0.87
2023-03-24T22:23:04.646Z,1.67
2023-03-24T22:25:32.307Z,1.03
2023-03-24T22:27:58.746Z,1.17
2023-03-24T22:30:25.439Z,0.87
2023-03-24T22:32:51.982Z,1.63
2023-03-24T22:35:18.575Z,0.80
2023-03-24T22:37:45.489Z,0.87
2023-03-24T22:40:12.042Z,1.10
2023-03-24T22:42:40.901Z,0.73
2023-03-24T22:45:08.595Z,1.43
2023-03-24T22:47:36.439Z,0.80
2023-03-24T22:50:06.020Z,0.63
2023-03-24T22:52:32.523Z,0.70
2023-03-24T22:54:59.312Z,1.17
2023-03-24T22:57:28.121Z,1.50
2023-03-24T22:59:54.710Z,1.07
2023-03-24T23:02:24.487Z,0.73
2023-03-24T23:04:51.361Z,1.10
2023-03-24T23:07:17.938Z,0.80
2023-03-24T23:09:45.001Z,1.63
2023-03-24T23:12:13.542Z,1.10
2023-03-24T23:14:40.128Z,1.03
2023-03-24T23:17:09.382Z,3.00
2023-03-24T23:19:37.090Z,1.43
2023-03-24T23:22:04.477Z,1.27
2023-03-24T23:24:33.623Z,0.70
2023-03-24T23:27:00.165Z,1.23
2023-03-24T23:29:26.726Z,1.53
2023-03-24T23:31:53.223Z,1.00
2023-03-24T23:34:21.294Z,1.53
2023-03-24T23:36:49.951Z,1.40
2023-03-24T23:39:17.356Z,1.40
2023-03-24T23:41:44.074Z,1.23
2023-03-24T23:44:11.270Z,1.30
2023-03-24T23:46:39.797Z,1.53
2023-03-24T23:49:10.827Z,1.10
2023-03-24T23:51:37.305Z,0.90
2023-03-24T23:54:04.191Z,0.90
2023-03-24T23:56:30.837Z,1.67
2023-03-24T23:58:57.463Z,2.40
